sensor_id;sensor_type;location;lat;lon;timestamp;P1;durP1;ratioP1;P2;durP2;ratioP2
417;SDS011;49;48.530;9.200;2023-02-01T00:01:05;12.07;;;5.80;;
417;SDS011;49;48.530;9.200;2023-02-01T00:03:39;12.00;;;6.70;;
417;SDS011;49;48.530;9.200;2023-02-01T00:06:09;7.10;;;4.57;;
417;SDS011;49;48.530;9.200;2023-02-01T00:08:39;11.03;;;6.40;;
417;SDS011;49;48.530;9.200;2023-02-01T00:11:11;8.77;;;5.43;;
417;SDS011;49;48.530;9.200;2023-02-01T00:13:41;8.90;;;5.40;;
417;SDS011;49;48.530;9.200;2023-02-01T00:16:14;18.83;;;5.80;;
417;SDS011;49;48.530;9.200;2023-02-01T00:18:48;9.97;;;5.70;;
417;SDS011;49;48.530;9.200;2023-02-01T00:21:23;9.13;;;5.67;;
417;SDS011;49;48.530;9.200;2023-02-01T00:23:57;12.30;;;5.70;;
417;SDS011;49;48.530;9.200;2023-02-01T00:26:27;9.77;;;5.77;;
417;SDS011;49;48.530;9.200;2023-02-01T00:29:14;7.47;;;4.87;;
417;SDS011;49;48.530;9.200;2023-02-01T00:31:58;7.30;;;4.90;;
417;SDS011;49;48.530;9.200;2023-02-01T00:34:36;8.33;;;4.90;;
417;SDS011;49;48.530;9.200;2023-02-01T00:37:12;7.03;;;4.47;;
417;SDS011;49;48.530;9.200;2023-02-01T00:39:48;8.30;;;4.80;;
417;SDS011;49;48.530;9.200;2023-02-01T00:42:20;6.57;;;4.30;;
417;SDS011;49;48.530;9.200;2023-02-01T00:44:53;5.07;;;4.40;;
417;SDS011;49;48.530;9.200;2023-02-01T00:47:24;8.57;;;4.73;;
417;SDS011;49;48.530;9.200;2023-02-01T00:49:55;5.70;;;4.20;;
417;SDS011;49;48.530;9.200;2023-02-01T00:52:27;7.77;;;4.83;;
417;SDS011;49;48.530;9.200;2023-02-01T00:55:07;5.43;;;4.23;;
417;SDS011;49;48.530;9.200;2023-02-01T00:57:42;7.80;;;4.10;;
417;SDS011;49;48.530;9.200;2023-02-01T01:00:14;6.20;;;3.60;;
417;SDS011;49;48.530;9.200;2023-02-01T01:02:59;4.60;;;3.50;;
417;SDS011;49;48.530;9.200;2023-02-01T01:05:42;6.00;;;3.80;;
417;SDS011;49;48.530;9.200;2023-02-01T01:08:15;6.40;;;4.17;;
417;SDS011;49;48.530;9.200;2023-02-01T01:10:45;6.40;;;3.90;;
417;SDS011;49;48.530;9.200;2023-02-01T01:13:14;5.30;;;3.87;;
417;SDS011;49;48.530;9.200;2023-02-01T01:15:42;4.70;;;3.50;;
417;SDS011;49;48.530;9.200;2023-02-01T01:18:14;5.70;;;3.90;;
417;SDS011;49;48.530;9.200;2023-02-01T01:20:43;5.03;;;3.40;;
417;SDS011;49;48.530;9.200;2023-02-01T01:23:18;4.40;;;3.50;;
417;SDS011;49;48.530;9.200;2023-02-01T01:25:58;5.03;;;3.47;;
417;SDS011;49;48.530;9.200;2023-02-01T01:28:27;7.03;;;4.40;;
417;SDS011;49;48.530;9.200;2023-02-01T01:30:55;5.17;;;3.83;;
417;SDS011;49;48.530;9.200;2023-02-01T01:33:28;5.13;;;4.27;;
417;SDS011;49;48.530;9.200;2023-02-01T01:35:57;4.57;;;3.63;;
417;SDS011;49;48.530;9.200;2023-02-01T01:38:27;5.00;;;3.27;;
417;SDS011;49;48.530;9.200;2023-02-01T01:40:58;4.00;;;3.30;;
417;SDS011;49;48.530;9.200;2023-02-01T01:43:47;4.10;;;3.20;;
417;SDS011;49;48.530;9.200;2023-02-01T01:46:20;5.07;;;3.60;;
417;SDS011;49;48.530;9.200;2023-02-01T01:48:51;4.90;;;3.30;;
417;SDS011;49;48.530;9.200;2023-02-01T01:51:28;4.93;;;3.47;;
417;SDS011;49;48.530;9.200;2023-02-01T01:54:19;4.87;;;3.17;;
417;SDS011;49;48.530;9.200;2023-02-01T01:56:53;5.03;;;3.27;;
417;SDS011;49;48.530;9.200;2023-02-01T01:59:30;3.80;;;3.33;;
417;SDS011;49;48.530;9.200;2023-02-01T02:02:05;3.60;;;3.10;;
417;SDS011;49;48.530;9.200;2023-02-01T02:04:40;4.80;;;3.03;;
417;SDS011;49;48.530;9.200;2023-02-01T02:07:10;4.00;;;3.33;;
417;SDS011;49;48.530;9.200;2023-02-01T02:09:56;3.50;;;2.97;;
417;SDS011;49;48.530;9.200;2023-02-01T02:12:27;4.40;;;3.00;;
417;SDS011;49;48.530;9.200;2023-02-01T02:15:00;3.40;;;3.07;;
417;SDS011;49;48.530;9.200;2023-02-01T02:17:35;4.43;;;3.07;;
417;SDS011;49;48.530;9.200;2023-02-01T02:23:28;4.13;;;3.00;;
417;SDS011;49;48.530;9.200;2023-02-01T02:26:41;3.50;;;3.20;;
417;SDS011;49;48.530;9.200;2023-02-01T02:29:34;4.20;;;3.00;;
417;SDS011;49;48.530;9.200;2023-02-01T02:32:42;4.27;;;3.13;;
417;SDS011;49;48.530;9.200;2023-02-01T02:35:42;3.70;;;3.10;;
417;SDS011;49;48.530;9.200;2023-02-01T02:38:30;3.80;;;3.07;;
417;SDS011;49;48.530;9.200;2023-02-01T02:41:16;4.43;;;3.27;;
417;SDS011;49;48.530;9.200;2023-02-01T02:46:35;4.53;;;3.10;;
417;SDS011;49;48.530;9.200;2023-02-01T02:49:26;3.40;;;2.73;;
417;SDS011;49;48.530;9.200;2023-02-01T02:52:09;4.03;;;3.03;;
417;SDS011;49;48.530;9.200;2023-02-01T02:54:59;4.70;;;3.20;;
417;SDS011;49;48.530;9.200;2023-02-01T02:57:40;3.87;;;3.33;;
417;SDS011;49;48.530;9.200;2023-02-01T03:00:30;4.00;;;3.50;;
417;SDS011;49;48.530;9.200;2023-02-01T03:03:21;3.57;;;2.90;;
417;SDS011;49;48.530;9.200;2023-02-01T03:06:10;4.27;;;3.07;;
417;SDS011;49;48.530;9.200;2023-02-01T03:11:29;4.27;;;3.27;;
417;SDS011;49;48.530;9.200;2023-02-01T03:14:15;5.00;;;3.20;;
417;SDS011;49;48.530;9.200;2023-02-01T03:16:50;4.00;;;3.20;;
417;SDS011;49;48.530;9.200;2023-02-01T03:19:27;6.83;;;4.03;;
417;SDS011;49;48.530;9.200;2023-02-01T03:21:59;5.27;;;3.60;;
417;SDS011;49;48.530;9.200;2023-02-01T03:24:41;4.80;;;3.73;;
417;SDS011;49;48.530;9.200;2023-02-01T03:27:17;4.37;;;3.40;;
417;SDS011;49;48.530;9.200;2023-02-01T03:29:49;4.00;;;3.20;;
417;SDS011;49;48.530;9.200;2023-02-01T03:32:23;3.50;;;2.73;;
417;SDS011;49;48.530;9.200;2023-02-01T03:34:51;3.87;;;3.47;;
417;SDS011;49;48.530;9.200;2023-02-01T03:37:23;7.00;;;3.60;;
417;SDS011;49;48.530;9.200;2023-02-01T03:39:56;3.27;;;2.90;;
417;SDS011;49;48.530;9.200;2023-02-01T03:42:27;3.67;;;3.00;;
417;SDS011;49;48.530;9.200;2023-02-01T03:45:03;3.63;;;3.20;;
417;SDS011;49;48.530;9.200;2023-02-01T03:47:37;4.23;;;3.13;;
417;SDS011;49;48.530;9.200;2023-02-01T03:50:09;4.30;;;3.57;;
417;SDS011;49;48.530;9.200;2023-02-01T03:52:43;4.57;;;3.30;;
417;SDS011;49;48.530;9.200;2023-02-01T03:55:18;4.77;;;3.80;;
417;SDS011;49;48.530;9.200;2023-02-01T03:57:50;4.77;;;3.87;;
417;SDS011;49;48.530;9.200;2023-02-01T04:00:24;3.43;;;3.27;;
417;SDS011;49;48.530;9.200;2023-02-01T04:02:53;3.80;;;3.30;;
417;SDS011;49;48.530;9.200;2023-02-01T04:05:22;4.10;;;3.43;;
417;SDS011;49;48.530;9.200;2023-02-01T04:07:53;5.73;;;3.57;;
417;SDS011;49;48.530;9.200;2023-02-01T04:10:26;4.40;;;3.43;;
417;SDS011;49;48.530;9.200;2023-02-01T04:12:55;4.60;;;3.20;;
417;SDS011;49;48.530;9.200;2023-02-01T04:15:24;3.77;;;3.63;;
417;SDS011;49;48.530;9.200;2023-02-01T04:17:52;3.80;;;3.30;;
417;SDS011;49;48.530;9.200;2023-02-01T04:20:20;3.80;;;3.43;;
417;SDS011;49;48.530;9.200;2023-02-01T04:22:50;4.47;;;3.67;;
417;SDS011;49;48.530;9.200;2023-02-01T04:25:18;5.23;;;3.50;;
417;SDS011;49;48.530;9.200;2023-02-01T04:27:48;5.10;;;3.50;;
417;SDS011;49;48.530;9.200;2023-02-01T04:30:16;3.63;;;3.30;;
417;SDS011;49;48.530;9.200;2023-02-01T04:32:44;4.50;;;3.50;;
417;SDS011;49;48.530;9.200;2023-02-01T04:35:12;5.63;;;3.97;;
417;SDS011;49;48.530;9.200;2023-02-01T04:37:43;5.80;;;3.50;;
417;SDS011;49;48.530;9.200;2023-02-01T04:40:11;5.80;;;3.93;;
417;SDS011;49;48.530;9.200;2023-02-01T04:42:40;4.67;;;3.73;;
417;SDS011;49;48.530;9.200;2023-02-01T04:45:09;8.73;;;3.70;;
417;SDS011;49;48.530;9.200;2023-02-01T04:47:37;5.03;;;3.50;;
417;SDS011;49;48.530;9.200;2023-02-01T04:50:04;4.40;;;3.70;;
417;SDS011;49;48.530;9.200;2023-02-01T04:52:35;6.80;;;3.80;;
417;SDS011;49;48.530;9.200;2023-02-01T04:55:02;7.37;;;3.67;;
417;SDS011;49;48.530;9.200;2023-02-01T04:57:30;6.70;;;3.67;;
417;SDS011;49;48.530;9.200;2023-02-01T04:59:59;4.73;;;3.63;;
417;SDS011;49;48.530;9.200;2023-02-01T05:02:28;4.40;;;3.20;;
417;SDS011;49;48.530;9.200;2023-02-01T05:04:57;6.33;;;4.00;;
417;SDS011;49;48.530;9.200;2023-02-01T05:07:24;4.40;;;3.73;;
417;SDS011;49;48.530;9.200;2023-02-01T05:09:52;3.70;;;3.20;;
417;SDS011;49;48.530;9.200;2023-02-01T05:12:19;4.73;;;3.50;;
417;SDS011;49;48.530;9.200;2023-02-01T05:15:03;4.47;;;3.60;;
417;SDS011;49;48.530;9.200;2023-02-01T05:17:33;5.37;;;3.67;;
417;SDS011;49;48.530;9.200;2023-02-01T05:20:00;4.00;;;3.43;;
417;SDS011;49;48.530;9.200;2023-02-01T05:22:27;5.80;;;3.23;;
417;SDS011;49;48.530;9.200;2023-02-01T05:24:54;6.60;;;4.20;;
417;SDS011;49;48.530;9.200;2023-02-01T05:27:21;4.33;;;3.27;;
417;SDS011;49;48.530;9.200;2023-02-01T05:29:48;3.90;;;3.17;;
417;SDS011;49;48.530;9.200;2023-02-01T05:32:16;5.50;;;3.23;;
417;SDS011;49;48.530;9.200;2023-02-01T05:34:44;3.70;;;2.97;;
417;SDS011;49;48.530;9.200;2023-02-01T05:37:11;5.53;;;2.93;;
417;SDS011;49;48.530;9.200;2023-02-01T05:39:39;5.97;;;3.40;;
417;SDS011;49;48.530;9.200;2023-02-01T05:42:06;4.60;;;3.30;;
417;SDS011;49;48.530;9.200;2023-02-01T05:44:33;3.97;;;3.30;;
417;SDS011;49;48.530;9.200;2023-02-01T05:47:01;4.03;;;3.13;;
417;SDS011;49;48.530;9.200;2023-02-01T05:49:28;8.20;;;3.70;;
417;SDS011;49;48.530;9.200;2023-02-01T05:51:59;6.57;;;3.43;;
417;SDS011;49;48.530;9.200;2023-02-01T05:54:27;5.40;;;3.43;;
417;SDS011;49;48.530;9.200;2023-02-01T05:56:54;3.47;;;2.93;;
417;SDS011;49;48.530;9.200;2023-02-01T05:59:22;6.50;;;3.77;;
417;SDS011;49;48.530;9.200;2023-02-01T06:01:49;3.33;;;3.00;;
417;SDS011;49;48.530;9.200;2023-02-01T06:04:17;3.30;;;2.67;;
417;SDS011;49;48.530;9.200;2023-02-01T06:06:45;3.93;;;3.20;;
417;SDS011;49;48.530;9.200;2023-02-01T06:09:16;3.07;;;2.83;;
417;SDS011;49;48.530;9.200;2023-02-01T06:11:44;3.57;;;3.10;;
417;SDS011;49;48.530;9.200;2023-02-01T06:14:11;4.33;;;2.93;;
417;SDS011;49;48.530;9.200;2023-02-01T06:16:41;5.17;;;3.03;;
417;SDS011;49;48.530;9.200;2023-02-01T06:19:10;3.40;;;3.07;;
417;SDS011;49;48.530;9.200;2023-02-01T06:21:39;4.00;;;3.40;;
417;SDS011;49;48.530;9.200;2023-02-01T06:24:07;4.07;;;3.20;;
417;SDS011;49;48.530;9.200;2023-02-01T06:26:37;3.50;;;3.07;;
417;SDS011;49;48.530;9.200;2023-02-01T06:29:05;5.17;;;3.80;;
417;SDS011;49;48.530;9.200;2023-02-01T06:31:39;4.47;;;3.13;;
417;SDS011;49;48.530;9.200;2023-02-01T06:34:07;6.30;;;3.60;;
417;SDS011;49;48.530;9.200;2023-02-01T06:36:35;4.57;;;3.43;;
417;SDS011;49;48.530;9.200;2023-02-01T06:39:03;5.57;;;4.00;;
417;SDS011;49;48.530;9.200;2023-02-01T06:41:30;4.40;;;3.20;;
417;SDS011;49;48.530;9.200;2023-02-01T06:44:01;6.27;;;3.40;;
417;SDS011;49;48.530;9.200;2023-02-01T06:46:28;5.70;;;3.37;;
417;SDS011;49;48.530;9.200;2023-02-01T06:48:55;7.90;;;3.50;;
417;SDS011;49;48.530;9.200;2023-02-01T06:51:23;4.67;;;3.17;;
417;SDS011;49;48.530;9.200;2023-02-01T06:53:50;8.23;;;3.53;;
417;SDS011;49;48.530;9.200;2023-02-01T06:56:17;4.40;;;2.97;;
417;SDS011;49;48.530;9.200;2023-02-01T06:58:45;4.30;;;3.53;;
417;SDS011;49;48.530;9.200;2023-02-01T07:01:14;4.83;;;3.33;;
417;SDS011;49;48.530;9.200;2023-02-01T07:03:41;4.70;;;3.13;;
417;SDS011;49;48.530;9.200;2023-02-01T07:06:09;7.63;;;3.40;;
417;SDS011;49;48.530;9.200;2023-02-01T07:08:36;5.40;;;3.50;;
417;SDS011;49;48.530;9.200;2023-02-01T07:11:04;5.77;;;3.77;;
417;SDS011;49;48.530;9.200;2023-02-01T07:13:32;4.20;;;3.60;;
417;SDS011;49;48.530;9.200;2023-02-01T07:15:59;6.20;;;3.47;;
417;SDS011;49;48.530;9.200;2023-02-01T07:18:29;7.83;;;3.20;;
417;SDS011;49;48.530;9.200;2023-02-01T07:20:57;5.57;;;3.60;;
417;SDS011;49;48.530;9.200;2023-02-01T07:23:25;7.33;;;3.80;;
417;SDS011;49;48.530;9.200;2023-02-01T07:25:53;5.33;;;3.70;;
417;SDS011;49;48.530;9.200;2023-02-01T07:28:20;5.03;;;3.60;;
417;SDS011;49;48.530;9.200;2023-02-01T07:30:47;8.40;;;3.50;;
417;SDS011;49;48.530;9.200;2023-02-01T07:33:16;7.63;;;4.10;;
417;SDS011;49;48.530;9.200;2023-02-01T07:35:47;4.77;;;3.47;;
417;SDS011;49;48.530;9.200;2023-02-01T07:38:16;5.20;;;3.73;;
417;SDS011;49;48.530;9.200;2023-02-01T07:40:44;7.87;;;3.90;;
417;SDS011;49;48.530;9.200;2023-02-01T07:43:11;9.10;;;3.60;;
417;SDS011;49;48.530;9.200;2023-02-01T07:45:39;8.80;;;3.30;;
417;SDS011;49;48.530;9.200;2023-02-01T07:48:06;4.60;;;3.43;;
417;SDS011;49;48.530;9.200;2023-02-01T07:50:33;6.80;;;3.47;;
417;SDS011;49;48.530;9.200;2023-02-01T07:53:01;6.83;;;3.70;;
417;SDS011;49;48.530;9.200;2023-02-01T07:55:28;4.20;;;2.97;;
417;SDS011;49;48.530;9.200;2023-02-01T07:57:56;4.90;;;3.40;;
417;SDS011;49;48.530;9.200;2023-02-01T08:00:24;6.47;;;3.33;;
417;SDS011;49;48.530;9.200;2023-02-01T08:03:09;4.20;;;3.80;;
417;SDS011;49;48.530;9.200;2023-02-01T08:05:36;4.30;;;3.60;;
417;SDS011;49;48.530;9.200;2023-02-01T08:08:05;5.60;;;3.30;;
417;SDS011;49;48.530;9.200;2023-02-01T08:10:32;5.63;;;3.00;;
417;SDS011;49;48.530;9.200;2023-02-01T08:13:01;6.83;;;3.30;;
417;SDS011;49;48.530;9.200;2023-02-01T08:15:29;10.30;;;3.90;;
417;SDS011;49;48.530;9.200;2023-02-01T08:17:56;5.97;;;3.30;;
417;SDS011;49;48.530;9.200;2023-02-01T08:20:25;6.10;;;3.57;;
417;SDS011;49;48.530;9.200;2023-02-01T08:22:52;7.47;;;3.87;;
417;SDS011;49;48.530;9.200;2023-02-01T08:25:21;5.73;;;3.50;;
417;SDS011;49;48.530;9.200;2023-02-01T08:27:49;5.03;;;3.50;;
417;SDS011;49;48.530;9.200;2023-02-01T08:30:18;4.67;;;3.80;;
417;SDS011;49;48.530;9.200;2023-02-01T08:32:45;7.00;;;4.10;;
417;SDS011;49;48.530;9.200;2023-02-01T08:35:13;8.70;;;3.77;;
417;SDS011;49;48.530;9.200;2023-02-01T08:37:40;4.27;;;3.47;;
417;SDS011;49;48.530;9.200;2023-02-01T08:40:07;5.77;;;3.37;;
417;SDS011;49;48.530;9.200;2023-02-01T08:42:37;6.30;;;3.40;;
417;SDS011;49;48.530;9.200;2023-02-01T08:45:20;5.20;;;3.50;;
417;SDS011;49;48.530;9.200;2023-02-01T08:47:48;5.17;;;3.53;;
417;SDS011;49;48.530;9.200;2023-02-01T08:50:16;6.00;;;4.00;;
417;SDS011;49;48.530;9.200;2023-02-01T08:52:44;4.60;;;3.57;;
417;SDS011;49;48.530;9.200;2023-02-01T08:55:11;7.30;;;3.33;;
417;SDS011;49;48.530;9.200;2023-02-01T08:57:40;5.80;;;3.80;;
417;SDS011;49;48.530;9.200;2023-02-01T09:00:11;5.00;;;3.60;;
417;SDS011;49;48.530;9.200;2023-02-01T09:02:40;7.47;;;4.80;;
417;SDS011;49;48.530;9.200;2023-02-01T09:05:07;6.97;;;3.83;;
417;SDS011;49;48.530;9.200;2023-02-01T09:07:35;6.13;;;3.50;;
417;SDS011;49;48.530;9.200;2023-02-01T09:10:03;6.07;;;3.47;;
417;SDS011;49;48.530;9.200;2023-02-01T09:12:32;6.87;;;3.33;;
417;SDS011;49;48.530;9.200;2023-02-01T09:15:01;5.83;;;3.47;;
417;SDS011;49;48.530;9.200;2023-02-01T09:17:32;4.07;;;3.50;;
417;SDS011;49;48.530;9.200;2023-02-01T09:19:59;4.47;;;3.50;;
417;SDS011;49;48.530;9.200;2023-02-01T09:22:26;4.87;;;3.43;;
417;SDS011;49;48.530;9.200;2023-02-01T09:24:53;5.47;;;3.70;;
417;SDS011;49;48.530;9.200;2023-02-01T09:27:20;5.87;;;3.63;;
417;SDS011;49;48.530;9.200;2023-02-01T09:29:48;6.43;;;3.33;;
417;SDS011;49;48.530;9.200;2023-02-01T09:32:19;7.53;;;3.40;;
417;SDS011;49;48.530;9.200;2023-02-01T09:34:47;5.20;;;3.37;;
417;SDS011;49;48.530;9.200;2023-02-01T09:37:14;6.87;;;3.60;;
417;SDS011;49;48.530;9.200;2023-02-01T09:39:41;7.20;;;3.27;;
417;SDS011;49;48.530;9.200;2023-02-01T09:42:14;6.87;;;3.50;;
417;SDS011;49;48.530;9.200;2023-02-01T09:44:53;5.70;;;3.50;;
417;SDS011;49;48.530;9.200;2023-02-01T09:47:35;7.93;;;3.80;;
417;SDS011;49;48.530;9.200;2023-02-01T09:50:05;20.33;;;4.53;;
417;SDS011;49;48.530;9.200;2023-02-01T09:52:42;9.47;;;3.63;;
417;SDS011;49;48.530;9.200;2023-02-01T09:55:13;4.87;;;3.10;;
417;SDS011;49;48.530;9.200;2023-02-01T09:57:45;9.10;;;4.23;;
417;SDS011;49;48.530;9.200;2023-02-01T10:00:19;9.63;;;4.03;;
417;SDS011;49;48.530;9.200;2023-02-01T10:02:54;10.23;;;3.80;;
417;SDS011;49;48.530;9.200;2023-02-01T10:05:25;13.70;;;4.47;;
417;SDS011;49;48.530;9.200;2023-02-01T10:08:11;7.63;;;3.50;;
417;SDS011;49;48.530;9.200;2023-02-01T10:10:45;7.10;;;3.60;;
417;SDS011;49;48.530;9.200;2023-02-01T10:13:18;14.30;;;4.40;;
417;SDS011;49;48.530;9.200;2023-02-01T10:15:56;8.73;;;3.30;;
417;SDS011;49;48.530;9.200;2023-02-01T10:18:56;10.33;;;4.00;;
417;SDS011;49;48.530;9.200;2023-02-01T10:21:36;6.13;;;3.30;;
417;SDS011;49;48.530;9.200;2023-02-01T10:24:16;8.13;;;3.70;;
417;SDS011;49;48.530;9.200;2023-02-01T10:26:51;10.60;;;4.00;;
417;SDS011;49;48.530;9.200;2023-02-01T10:29:24;6.93;;;3.80;;
417;SDS011;49;48.530;9.200;2023-02-01T10:31:56;18.67;;;4.80;;
417;SDS011;49;48.530;9.200;2023-02-01T10:34:26;18.10;;;5.40;;
417;SDS011;49;48.530;9.200;2023-02-01T10:36:56;11.90;;;4.23;;
417;SDS011;49;48.530;9.200;2023-02-01T10:39:26;8.67;;;3.60;;
417;SDS011;49;48.530;9.200;2023-02-01T10:41:54;12.03;;;4.77;;
417;SDS011;49;48.530;9.200;2023-02-01T10:44:23;20.47;;;4.50;;
417;SDS011;49;48.530;9.200;2023-02-01T10:46:53;17.10;;;4.43;;
417;SDS011;49;48.530;9.200;2023-02-01T10:49:21;19.77;;;5.53;;
417;SDS011;49;48.530;9.200;2023-02-01T10:51:58;9.57;;;3.87;;
417;SDS011;49;48.530;9.200;2023-02-01T10:54:32;11.80;;;4.30;;
417;SDS011;49;48.530;9.200;2023-02-01T10:57:00;13.67;;;3.90;;
417;SDS011;49;48.530;9.200;2023-02-01T10:59:28;13.60;;;4.60;;
417;SDS011;49;48.530;9.200;2023-02-01T11:01:58;14.90;;;4.17;;
417;SDS011;49;48.530;9.200;2023-02-01T11:04:28;14.03;;;3.60;;
417;SDS011;49;48.530;9.200;2023-02-01T11:07:05;11.73;;;3.83;;
417;SDS011;49;48.530;9.200;2023-02-01T11:09:34;18.30;;;4.63;;
417;SDS011;49;48.530;9.200;2023-02-01T11:12:10;14.87;;;4.80;;
417;SDS011;49;48.530;9.200;2023-02-01T11:14:49;13.47;;;4.57;;
417;SDS011;49;48.530;9.200;2023-02-01T11:17:18;12.07;;;4.73;;
417;SDS011;49;48.530;9.200;2023-02-01T11:20:01;16.70;;;5.90;;
417;SDS011;49;48.530;9.200;2023-02-01T11:22:30;16.10;;;4.40;;
417;SDS011;49;48.530;9.200;2023-02-01T11:24:58;21.33;;;4.73;;
417;SDS011;49;48.530;9.200;2023-02-01T11:27:27;15.10;;;4.03;;
417;SDS011;49;48.530;9.200;2023-02-01T11:29:55;18.17;;;5.30;;
417;SDS011;49;48.530;9.200;2023-02-01T11:32:26;22.83;;;4.50;;
417;SDS011;49;48.530;9.200;2023-02-01T11:34:57;18.67;;;4.40;;
417;SDS011;49;48.530;9.200;2023-02-01T11:37:28;7.90;;;3.80;;
417;SDS011;49;48.530;9.200;2023-02-01T11:40:00;10.40;;;4.33;;
417;SDS011;49;48.530;9.200;2023-02-01T11:42:28;35.30;;;10.70;;
417;SDS011;49;48.530;9.200;2023-02-01T11:47:45;7.70;;;4.00;;
417;SDS011;49;48.530;9.200;2023-02-01T11:50:15;11.37;;;4.60;;
417;SDS011;49;48.530;9.200;2023-02-01T11:52:48;9.90;;;4.27;;
417;SDS011;49;48.530;9.200;2023-02-01T11:55:50;14.73;;;4.73;;
417;SDS011;49;48.530;9.200;2023-02-01T11:58:39;11.13;;;4.30;;
417;SDS011;49;48.530;9.200;2023-02-01T12:01:19;13.43;;;3.93;;
417;SDS011;49;48.530;9.200;2023-02-01T12:04:11;14.10;;;4.30;;
417;SDS011;49;48.530;9.200;2023-02-01T12:07:13;15.83;;;4.60;;
417;SDS011;49;48.530;9.200;2023-02-01T12:09:47;12.33;;;4.40;;
417;SDS011;49;48.530;9.200;2023-02-01T12:12:22;13.43;;;4.27;;
417;SDS011;49;48.530;9.200;2023-02-01T12:15:08;9.40;;;3.60;;
417;SDS011;49;48.530;9.200;2023-02-01T12:17:58;15.63;;;3.90;;
417;SDS011;49;48.530;9.200;2023-02-01T12:20:51;12.40;;;4.30;;
417;SDS011;49;48.530;9.200;2023-02-01T12:23:36;10.27;;;4.43;;
417;SDS011;49;48.530;9.200;2023-02-01T12:26:14;16.47;;;4.50;;
417;SDS011;49;48.530;9.200;2023-02-01T12:32:25;12.00;;;3.73;;
417;SDS011;49;48.530;9.200;2023-02-01T12:35:19;13.17;;;4.10;;
417;SDS011;49;48.530;9.200;2023-02-01T12:37:58;13.40;;;4.53;;
417;SDS011;49;48.530;9.200;2023-02-01T12:40:42;13.67;;;5.37;;
417;SDS011;49;48.530;9.200;2023-02-01T12:43:18;8.60;;;4.33;;
417;SDS011;49;48.530;9.200;2023-02-01T12:45:51;12.73;;;4.70;;
417;SDS011;49;48.530;9.200;2023-02-01T12:48:25;15.80;;;4.37;;
417;SDS011;49;48.530;9.200;2023-02-01T12:50:58;16.10;;;4.67;;
417;SDS011;49;48.530;9.200;2023-02-01T12:53:30;16.60;;;4.23;;
417;SDS011;49;48.530;9.200;2023-02-01T12:56:11;15.53;;;4.80;;
417;SDS011;49;48.530;9.200;2023-02-01T12:58:46;15.57;;;5.20;;
417;SDS011;49;48.530;9.200;2023-02-01T13:01:18;9.87;;;3.90;;
417;SDS011;49;48.530;9.200;2023-02-01T13:03:50;18.80;;;5.60;;
417;SDS011;49;48.530;9.200;2023-02-01T13:06:24;21.03;;;5.40;;
417;SDS011;49;48.530;9.200;2023-02-01T13:08:56;18.83;;;4.53;;
417;SDS011;49;48.530;9.200;2023-02-01T13:11:29;14.17;;;4.70;;
417;SDS011;49;48.530;9.200;2023-02-01T13:14:00;11.10;;;4.10;;
417;SDS011;49;48.530;9.200;2023-02-01T13:16:32;11.10;;;4.43;;
417;SDS011;49;48.530;9.200;2023-02-01T13:19:05;15.03;;;5.20;;
417;SDS011;49;48.530;9.200;2023-02-01T13:21:38;14.30;;;4.77;;
417;SDS011;49;48.530;9.200;2023-02-01T13:24:14;14.70;;;4.90;;
417;SDS011;49;48.530;9.200;2023-02-01T13:26:54;17.23;;;5.17;;
417;SDS011;49;48.530;9.200;2023-02-01T13:29:21;12.77;;;4.37;;
417;SDS011;49;48.530;9.200;2023-02-01T13:37:34;15.83;;;4.50;;
417;SDS011;49;48.530;9.200;2023-02-01T13:40:17;12.40;;;5.07;;
417;SDS011;49;48.530;9.200;2023-02-01T13:42:55;14.30;;;4.97;;
417;SDS011;49;48.530;9.200;2023-02-01T13:45:25;18.93;;;4.70;;
417;SDS011;49;48.530;9.200;2023-02-01T13:47:56;10.43;;;4.00;;
417;SDS011;49;48.530;9.200;2023-02-01T13:50:26;14.63;;;4.30;;
417;SDS011;49;48.530;9.200;2023-02-01T13:52:59;14.23;;;4.50;;
417;SDS011;49;48.530;9.200;2023-02-01T13:55:33;15.50;;;4.43;;
417;SDS011;49;48.530;9.200;2023-02-01T13:58:05;14.13;;;4.90;;
417;SDS011;49;48.530;9.200;2023-02-01T14:00:41;16.03;;;4.80;;
417;SDS011;49;48.530;9.200;2023-02-01T14:03:13;13.27;;;4.80;;
417;SDS011;49;48.530;9.200;2023-02-01T14:05:56;10.70;;;4.00;;
417;SDS011;49;48.530;9.200;2023-02-01T14:08:41;10.47;;;4.20;;
417;SDS011;49;48.530;9.200;2023-02-01T14:11:31;13.33;;;4.10;;
417;SDS011;49;48.530;9.200;2023-02-01T14:23:15;17.10;;;5.47;;
417;SDS011;49;48.530;9.200;2023-02-01T14:25:44;14.37;;;4.60;;
417;SDS011;49;48.530;9.200;2023-02-01T14:28:22;17.77;;;4.40;;
417;SDS011;49;48.530;9.200;2023-02-01T14:30:54;19.90;;;5.03;;
417;SDS011;49;48.530;9.200;2023-02-01T14:33:26;6.30;;;4.10;;
417;SDS011;49;48.530;9.200;2023-02-01T14:36:00;9.93;;;4.03;;
417;SDS011;49;48.530;9.200;2023-02-01T14:38:33;16.23;;;5.10;;
417;SDS011;49;48.530;9.200;2023-02-01T14:41:13;15.70;;;4.00;;
417;SDS011;49;48.530;9.200;2023-02-01T14:43:51;13.03;;;5.00;;
417;SDS011;49;48.530;9.200;2023-02-01T14:50:17;12.13;;;4.80;;
417;SDS011;49;48.530;9.200;2023-02-01T14:53:03;17.97;;;4.60;;
417;SDS011;49;48.530;9.200;2023-02-01T14:55:39;15.63;;;5.33;;
417;SDS011;49;48.530;9.200;2023-02-01T14:58:13;20.93;;;4.50;;
417;SDS011;49;48.530;9.200;2023-02-01T15:00:49;19.60;;;5.40;;
417;SDS011;49;48.530;9.200;2023-02-01T15:03:36;13.60;;;4.40;;
417;SDS011;49;48.530;9.200;2023-02-01T15:06:17;15.30;;;4.67;;
417;SDS011;49;48.530;9.200;2023-02-01T15:08:57;18.97;;;4.77;;
417;SDS011;49;48.530;9.200;2023-02-01T15:11:27;13.70;;;5.03;;
417;SDS011;49;48.530;9.200;2023-02-01T15:13:54;15.43;;;4.67;;
417;SDS011;49;48.530;9.200;2023-02-01T15:16:24;18.27;;;6.20;;
417;SDS011;49;48.530;9.200;2023-02-01T15:19:06;24.60;;;6.60;;
417;SDS011;49;48.530;9.200;2023-02-01T15:21:42;12.57;;;4.60;;
417;SDS011;49;48.530;9.200;2023-02-01T15:24:11;18.70;;;4.30;;
417;SDS011;49;48.530;9.200;2023-02-01T15:26:38;20.27;;;5.67;;
417;SDS011;49;48.530;9.200;2023-02-01T15:29:08;22.73;;;8.60;;
417;SDS011;49;48.530;9.200;2023-02-01T15:31:39;17.80;;;6.47;;
417;SDS011;49;48.530;9.200;2023-02-01T15:34:07;24.00;;;5.73;;
417;SDS011;49;48.530;9.200;2023-02-01T15:36:35;19.53;;;7.67;;
417;SDS011;49;48.530;9.200;2023-02-01T15:39:18;25.60;;;5.57;;
417;SDS011;49;48.530;9.200;2023-02-01T15:41:51;14.17;;;7.23;;
417;SDS011;49;48.530;9.200;2023-02-01T15:44:21;20.63;;;4.70;;
417;SDS011;49;48.530;9.200;2023-02-01T15:46:57;15.60;;;5.30;;
417;SDS011;49;48.530;9.200;2023-02-01T15:49:27;14.73;;;5.03;;
417;SDS011;49;48.530;9.200;2023-02-01T15:51:57;15.63;;;5.23;;
417;SDS011;49;48.530;9.200;2023-02-01T15:54:27;23.10;;;7.00;;
417;SDS011;49;48.530;9.200;2023-02-01T15:56:57;12.50;;;5.23;;
417;SDS011;49;48.530;9.200;2023-02-01T15:59:29;22.00;;;5.60;;
417;SDS011;49;48.530;9.200;2023-02-01T16:02:00;18.43;;;4.40;;
417;SDS011;49;48.530;9.200;2023-02-01T16:04:28;13.60;;;5.30;;
417;SDS011;49;48.530;9.200;2023-02-01T16:06:58;13.17;;;5.07;;
417;SDS011;49;48.530;9.200;2023-02-01T16:09:35;22.47;;;6.20;;
417;SDS011;49;48.530;9.200;2023-02-01T16:12:29;13.57;;;4.70;;
417;SDS011;49;48.530;9.200;2023-02-01T16:15:00;20.27;;;4.80;;
417;SDS011;49;48.530;9.200;2023-02-01T16:17:29;20.37;;;6.03;;
417;SDS011;49;48.530;9.200;2023-02-01T16:19:57;18.70;;;5.20;;
417;SDS011;49;48.530;9.200;2023-02-01T16:22:24;18.70;;;5.23;;
417;SDS011;49;48.530;9.200;2023-02-01T16:24:51;17.80;;;4.87;;
417;SDS011;49;48.530;9.200;2023-02-01T16:27:18;23.37;;;5.00;;
417;SDS011;49;48.530;9.200;2023-02-01T16:29:47;17.40;;;6.90;;
417;SDS011;49;48.530;9.200;2023-02-01T16:32:15;23.80;;;5.47;;
417;SDS011;49;48.530;9.200;2023-02-01T16:34:46;21.43;;;5.33;;
417;SDS011;49;48.530;9.200;2023-02-01T16:37:14;23.03;;;5.37;;
417;SDS011;49;48.530;9.200;2023-02-01T16:39:44;15.13;;;6.13;;
417;SDS011;49;48.530;9.200;2023-02-01T16:42:11;19.37;;;5.13;;
417;SDS011;49;48.530;9.200;2023-02-01T16:44:39;19.00;;;5.57;;
417;SDS011;49;48.530;9.200;2023-02-01T16:47:10;14.97;;;5.83;;
417;SDS011;49;48.530;9.200;2023-02-01T16:49:40;22.77;;;6.50;;
417;SDS011;49;48.530;9.200;2023-02-01T16:52:12;22.00;;;5.30;;
417;SDS011;49;48.530;9.200;2023-02-01T16:54:42;29.40;;;6.43;;
417;SDS011;49;48.530;9.200;2023-02-01T16:57:11;20.90;;;6.13;;
417;SDS011;49;48.530;9.200;2023-02-01T16:59:39;16.43;;;5.50;;
417;SDS011;49;48.530;9.200;2023-02-01T17:02:06;14.20;;;5.27;;
417;SDS011;49;48.530;9.200;2023-02-01T17:04:37;20.33;;;5.83;;